createdAt,value
2022-08-22T00:06:51.220Z,11.52
2022-08-22T00:17:05.238Z,11.82
2022-08-22T00:27:12.738Z,11.80
2022-08-22T00:37:37.458Z,10.18
2022-08-22T00:47:52.095Z,12.98
2022-08-22T00:58:22.453Z,15.50
2022-08-22T01:08:30.687Z,12.35
2022-08-22T01:18:50.402Z,12.40
2022-08-22T01:29:27.771Z,11.88
2022-08-22T01:39:58.605Z,14.35
2022-08-22T01:50:21.216Z,14.38
2022-08-22T02:00:34.530Z,16.10
2022-08-22T02:11:13.462Z,15.65
2022-08-22T02:21:32.761Z,16.08
2022-08-22T02:31:53.918Z,15.05
2022-08-22T02:42:26.276Z,15.63
2022-08-22T02:53:00.248Z,13.27
2022-08-22T03:03:14.514Z,14.82
2022-08-22T03:13:38.292Z,15.02
2022-08-22T03:23:49.487Z,14.80
2022-08-22T03:34:22.750Z,13.27
2022-08-22T03:44:54.314Z,12.85
2022-08-22T03:55:34.538Z,13.10
2022-08-22T04:05:45.887Z,13.80
2022-08-22T04:16:03.253Z,12.45
2022-08-22T04:26:12.983Z,12.70
2022-08-22T04:36:22.419Z,14.73
2022-08-22T04:46:41.705Z,10.73
2022-08-22T04:57:21.389Z,11.55
2022-08-22T05:07:36.255Z,10.80
2022-08-22T05:17:40.591Z,18.00
2022-08-22T05:27:48.789Z,11.35
2022-08-22T05:37:56.263Z,13.57
2022-08-22T05:48:18.743Z,10.45
2022-08-22T05:58:40.017Z,11.13
2022-08-22T06:08:48.292Z,13.27
2022-08-22T06:18:52.413Z,12.38
2022-08-22T06:28:58.858Z,11.55
2022-08-22T06:39:25.083Z,13.07
2022-08-22T06:49:32.877Z,15.52
2022-08-22T06:59:41.133Z,12.00
2022-08-22T07:09:44.190Z,17.13
2022-08-22T07:20:05.966Z,13.93
2022-08-22T07:30:15.210Z,14.38
2022-08-22T07:40:21.109Z,11.65
2022-08-22T07:50:28.736Z,12.93
2022-08-22T08:00:37.669Z,14.68
2022-08-22T08:10:41.226Z,10.50
2022-08-22T08:20:43.734Z,14.40
2022-08-22T08:30:59.212Z,10.30
2022-08-22T08:41:19.710Z,12.02
2022-08-22T08:51:24.887Z,7.15
2022-08-22T09:12:26.938Z,6.57
2022-08-22T09:22:50.856Z,7.30
2022-08-22T09:33:14.358Z,7.32
2022-08-22T09:40:15.325Z,9.80
2022-08-22T09:43:34.681Z,8.43
2022-08-22T09:53:43.025Z,6.68
2022-08-22T10:03:45.492Z,7.00
2022-08-22T10:14:26.040Z,5.22
2022-08-22T10:25:00.240Z,6.45
2022-08-22T10:35:21.371Z,5.70
2022-08-22T10:45:35.512Z,4.90
2022-08-22T10:55:43.526Z,4.22
2022-08-22T11:05:50.230Z,5.32
2022-08-22T11:16:18.821Z,4.22
2022-08-22T11:26:38.502Z,4.40
2022-08-22T11:36:56.230Z,5.85
2022-08-22T11:47:07.487Z,6.43
2022-08-22T11:57:18.270Z,4.50
2022-08-22T12:07:39.655Z,4.13
2022-08-22T12:18:08.471Z,4.05
2022-08-22T12:28:48.447Z,3.53
2022-08-22T12:39:24.584Z,5.43
2022-08-22T12:50:01.366Z,4.43
2022-08-22T13:00:26.877Z,4.95
2022-08-22T13:10:44.790Z,5.30
2022-08-22T13:20:50.859Z,4.18
2022-08-22T13:30:54.605Z,5.30
2022-08-22T13:41:00.084Z,4.38
2022-08-22T13:51:11.687Z,3.17
2022-08-22T14:01:31.496Z,3.92
2022-08-22T14:11:51.147Z,4.72
2022-08-22T14:22:09.254Z,2.35
2022-08-22T14:32:25.810Z,5.82
2022-08-22T14:42:44.403Z,3.92
2022-08-22T14:52:49.293Z,6.45
2022-08-22T15:02:52.256Z,3.97
2022-08-22T15:13:00.937Z,7.05
2022-08-22T15:23:16.039Z,5.15
2022-08-22T15:53:44.802Z,6.68
2022-08-22T16:04:15.570Z,4.47
2022-08-22T16:14:41.764Z,3.63
2022-08-22T16:25:01.558Z,4.40
2022-08-22T16:35:05.065Z,5.22
2022-08-22T16:45:29.920Z,4.55
2022-08-22T16:55:36.123Z,3.38
2022-08-22T17:05:51.543Z,5.28
2022-08-22T17:16:10.149Z,5.47
2022-08-22T17:26:33.400Z,3.65
2022-08-22T17:36:48.267Z,5.43
2022-08-22T17:47:19.099Z,4.50
2022-08-22T17:57:30.794Z,5.07
2022-08-22T18:07:45.182Z,5.15
2022-08-22T18:17:57.925Z,5.85
2022-08-22T18:28:12.160Z,5.60
2022-08-22T18:38:36.613Z,5.00
2022-08-22T18:49:13.727Z,6.22
2022-08-22T18:59:29.362Z,8.73
2022-08-22T19:09:50.551Z,6.15
2022-08-22T19:20:28.182Z,6.35
2022-08-22T19:30:42.792Z,6.80
2022-08-22T19:40:45.940Z,6.57
2022-08-22T19:51:26.191Z,6.65
2022-08-22T20:01:57.480Z,5.65
2022-08-22T20:12:18.891Z,6.80
2022-08-22T20:22:33.998Z,9.23
2022-08-22T20:32:44.184Z,8.45
2022-08-22T20:42:50.702Z,10.70
2022-08-22T20:53:14.990Z,6.57
2022-08-22T21:03:42.475Z,6.55
2022-08-22T21:13:45.728Z,9.45
2022-08-22T21:24:09.447Z,5.90
2022-08-22T21:34:17.675Z,7.72
2022-08-22T21:44:33.997Z,7.70
2022-08-22T21:54:40.405Z,5.07
2022-08-22T22:04:43.572Z,6.22
2022-08-22T22:14:51.955Z,6.30
2022-08-22T22:24:54.386Z,6.95
2022-08-22T22:34:56.806Z,5.60
2022-08-22T22:44:59.474Z,6.35
2022-08-22T22:55:01.908Z,4.00
2022-08-22T23:05:08.001Z,4.32
2022-08-22T23:15:11.685Z,5.30
2022-08-22T23:25:15.746Z,11.13
2022-08-22T23:35:18.459Z,10.57
2022-08-22T23:45:21.803Z,11.73
2022-08-22T23:55:24.248Z,9.02
